Data for 01/11/2005

Time Sea-Level Adjusted Pressure Absolute Pressure Temperature Relative Humidity Dew Point   
(mb) (inHg) (mb) (inHg) (C) (F) (%) (C) (F)
00:05 1009 29.8 838 24.75 -10.6 12.9 82 -13.1 8.4
00:10 1009 29.8 838 24.75 -10.2 13.6 82 -12.7 9.1
00:15 1009 29.8 838 24.75 -9.1 15.6 75 -12.8 9
00:20 1008 29.77 838 24.75 -8.4 16.9 74 -12.3 9.8
00:25 1008 29.77 838 24.75 -8.2 17.2 69 -12.9 8.8
00:30 1008 29.77 838 24.75 -9.4 15 76 -12.9 8.8
00:35 1008 29.77 837 24.72 -9.6 14.7 76 -13.1 8.5
00:40 1008 29.77 838 24.75 -9.2 15.4 74 -13 8.7
00:45 1009 29.8 838 24.75 -9 15.9 75 -12.7 9.2
00:50 1009 29.8 838 24.75 -8.5 16.7 74 -12.4 9.7
00:55 1009 29.8 838 24.75 -7.9 17.8 70 -12.4 9.6
01:00 1009 29.8 838 24.75 -7.7 18.2 68 -12.6 9.4
01:05 1008 29.77 838 24.75 -7.7 18.2 70 -12.3 9.9
01:10 1008 29.77 837 24.72 -7.6 18.2 70 -12.1 10.1
01:15 1008 29.77 837 24.72 -7.7 18.1 70 -12.3 9.9
01:20 1008 29.77 837 24.72 -8.5 16.7 74 -12.3 9.9
01:25 1008 29.77 837 24.72 -9.1 15.7 77 -12.4 9.7
01:30 1008 29.77 837 24.72 -9.2 15.5 76 -12.6 9.4
01:35 1008 29.77 837 24.72 -9.5 14.8 78 -12.6 9.3
01:40 1008 29.77 837 24.72 -9.5 14.8 78 -12.6 9.3
01:45 1008 29.77 837 24.72 -8.9 15.9 76 -12.5 9.6
01:50 1008 29.77 837 24.72 -8.8 16.1 75 -12.5 9.6
01:55 1008 29.77 837 24.72 -9.1 15.6 77 -12.4 9.6
02:00 1008 29.77 837 24.72 -9.3 15.2 78 -12.5 9.5
02:05 1008 29.77 837 24.72 -9.7 14.6 78 -12.9 8.9
02:10 1008 29.77 837 24.72 -9.9 14.1 80 -12.7 9.1
02:15 1008 29.77 837 24.72 -9.8 14.3 76 -13.2 8.2
02:20 1008 29.77 837 24.72 -10 14.1 77 -13.3 8
02:25 1008 29.77 837 24.72 -10.4 13.3 78 -13.5 7.6
02:30 1008 29.77 837 24.72 -10.8 12.5 78 -14 6.8
02:35 1008 29.77 837 24.72 -11.5 11.2 80 -14.3 6.3
02:40 1008 29.77 837 24.72 -12.1 10.2 83 -14.4 6.1
02:45 1008 29.77 837 24.72 -12.4 9.8 83 -14.6 5.7
02:50 1008 29.77 837 24.72 -12.4 9.6 87 -14.2 6.4
02:55 1008 29.77 837 24.72 -12.3 9.8 85 -14.3 6.2
03:00 1008 29.77 837 24.72 -12 10.3 85 -14 6.8
03:05 1008 29.77 837 24.72 -11.8 10.8 83 -14.1 6.6
03:10 1008 29.77 837 24.72 -11.9 10.6 84 -14.1 6.6
03:15 1008 29.77 837 24.72 -11.5 11.3 82 -13.9 6.9
03:20 1008 29.77 837 24.72 -11.2 11.9 81 -13.8 7.1
03:25 1008 29.77 837 24.72 -10.8 12.7 80 -13.5 7.7
03:30 1008 29.77 837 24.72 -10.3 13.5 78 -13.4 7.9
03:35 1008 29.77 837 24.72 -10.6 13 79 -13.6 7.5
03:40 1008 29.77 837 24.72 -11.1 12 81 -13.7 7.3
03:45 1008 29.77 837 24.72 -11.2 11.8 82 -13.8 7.2
03:50 1008 29.77 837 24.72 -10.9 12.4 81 -13.6 7.5
03:55 1008 29.77 837 24.72 -10.9 12.4 80 -13.7 7.3
04:00 1008 29.77 837 24.72 -10.7 12.7 81 -13.4 7.8
04:05 1008 29.77 837 24.72 -10.6 13 81 -13.3 8.1
04:10 1008 29.77 837 24.72 -10.3 13.5 80 -13.2 8.3
04:15 1008 29.77 837 24.72 -10 14 79 -13 8.5
04:20 1008 29.77 837 24.72 -10 14.1 78 -13 8.6
04:25 1008 29.77 837 24.72 -9.9 14.1 78 -13.1 8.5
04:30 1008 29.77 837 24.72 -10.1 13.9 79 -13.1 8.5
04:35 1007 29.74 837 24.72 -10.1 13.9 79 -13.1 8.5
04:40 1007 29.74 837 24.72 -9.9 14.1 79 -12.9 8.7
04:45 1007 29.74 837 24.72 -9.7 14.5 78 -12.8 8.9
04:50 1007 29.74 837 24.72 -9.7 14.5 79 -12.7 9.2
04:55 1007 29.74 836 24.69 -9.6 14.8 78 -12.7 9.1
05:00 1007 29.74 836 24.69 -9.7 14.6 80 -12.5 9.5
05:05 1007 29.74 836 24.69 -9.4 15.1 79 -12.5 9.6
05:10 1007 29.74 836 24.69 -9.5 14.9 79 -12.5 9.4
05:15 1007 29.74 836 24.69 -9.8 14.3 80 -12.7 9.2
05:20 1007 29.74 836 24.69 -10 14 80 -12.8 9
05:25 1007 29.74 836 24.69 -9.9 14.2 80 -12.7 9.1
05:30 1007 29.74 836 24.69 -9.7 14.6 80 -12.6 9.4
05:35 1007 29.74 836 24.69 -9.3 15.3 78 -12.4 9.7
05:40 1007 29.74 836 24.69 -9.1 15.5 78 -12.2 10
05:45 1007 29.74 836 24.69 -9 15.7 78 -12.2 10
05:50 1007 29.74 836 24.69 -8.9 16.1 77 -12.2 10.1
05:55 1007 29.74 836 24.69 -8.9 16 78 -12.2 10.1
06:00 1007 29.74 836 24.69 -9.1 15.6 78 -12.2 10
06:05 1007 29.74 836 24.69 -8.9 15.9 78 -12.2 10.1
06:10 1007 29.74 836 24.69 -8.6 16.5 76 -12.1 10.3
06:15 1007 29.74 836 24.69 -8.5 16.7 76 -12 10.4
06:20 1007 29.74 836 24.69 -8.5 16.7 76 -11.9 10.6
06:25 1007 29.74 836 24.69 -8.4 16.8 77 -11.8 10.7
06:30 1007 29.74 836 24.69 -8.4 17 76 -11.9 10.6
06:35 1007 29.74 836 24.69 -8.3 17 76 -11.8 10.8
06:40 1006 29.71 836 24.69 -8.3 17.1 77 -11.6 11
06:45 1006 29.71 836 24.69 -8.1 17.4 76 -11.6 11.2
06:50 1006 29.71 835 24.66 -8 17.6 76 -11.6 11.2
06:55 1006 29.71 836 24.69 -8 17.7 76 -11.5 11.4
07:00 1006 29.71 835 24.66 -8 17.6 76 -11.6 11.2
07:05 1006 29.71 835 24.66 -7.9 17.9 75 -11.6 11.2
07:10 1006 29.71 836 24.69 -7.7 18.2 75 -11.5 11.4
07:15 1006 29.71 836 24.69 -7.8 17.9 74 -11.6 11.1
07:20 1006 29.71 835 24.66 -8 17.7 75 -11.6 11.1
07:25 1006 29.71 835 24.66 -7.9 17.7 76 -11.5 11.3
07:30 1006 29.71 835 24.66 -8 17.7 76 -11.5 11.3
07:35 1006 29.71 835 24.66 -7.9 17.8 76 -11.5 11.3
07:40 1006 29.71 835 24.66 -8 17.7 76 -11.5 11.3
07:45 1006 29.71 835 24.66 -8.2 17.2 78 -11.4 11.5
07:50 1006 29.71 835 24.66 -8.4 16.8 79 -11.5 11.3
07:55 1005 29.68 834 24.63 -8.3 17 78 -11.5 11.3
08:00 1005 29.68 834 24.63 -8.2 17.3 77 -11.4 11.4
08:05 1005 29.68 834 24.63 -8.2 17.3 77 -11.6 11.1
08:10 1005 29.68 834 24.63 -8.2 17.3 77 -11.5 11.2
08:15 1005 29.68 834 24.63 -8.1 17.5 76 -11.5 11.2
08:20 1005 29.68 834 24.63 -8.2 17.2 77 -11.5 11.3
08:25 1005 29.68 834 24.63 -8.4 16.8 78 -11.6 11.1
08:30 1005 29.68 834 24.63 -8.3 17.1 77 -11.7 11
08:35 1005 29.68 834 24.63 -7.8 17.9 75 -11.5 11.2
08:40 1005 29.68 834 24.63 -7.6 18.4 74 -11.5 11.3
08:45 1005 29.68 834 24.63 -7.4 18.7 72 -11.6 11.2
08:50 1005 29.68 834 24.63 -6.5 20.3 68 -11.5 11.3
08:55 1005 29.68 834 24.63 -5.9 21.5 67 -11.1 12
09:00 1005 29.68 834 24.63 -6.2 20.9 68 -11.1 11.9
09:05 1005 29.68 834 24.63 -6.3 20.6 65 -11.9 10.7
09:10 1005 29.68 834 24.63 -5.9 21.3 65 -11.5 11.4
09:15 1005 29.68 834 24.63 -6.1 21 63 -12.1 10.3
09:20 1005 29.68 834 24.63 -6.4 20.4 67 -11.6 11.2
09:25 1005 29.68 834 24.63 -6.3 20.7 64 -11.9 10.5
09:30 1005 29.68 834 24.63 -6.2 20.9 67 -11.4 11.4
09:35 1005 29.68 834 24.63 -6.5 20.3 66 -11.8 10.7
09:40 1005 29.68 834 24.63 -5.9 21.4 63 -11.8 10.8
09:45 1005 29.68 834 24.63 -6.9 19.5 70 -11.5 11.3
09:50 1005 29.68 834 24.63 -7.1 19.2 69 -11.9 10.5
09:55 1005 29.68 834 24.63 -6.2 20.9 64 -11.9 10.6
10:00 1005 29.68 834 24.63 -5.3 22.4 62 -11.5 11.2
10:05 1005 29.68 834 24.63 -5.2 22.6 62 -11.4 11.5
10:10 1005 29.68 834 24.63 -4.9 23.2 61 -11.2 11.8
10:15 1005 29.68 834 24.63 -5 23 63 -11.1 12.1
10:20 1005 29.68 834 24.63 -5.6 21.9 63 -11.5 11.2
10:25 1005 29.68 834 24.63 -5.9 21.4 61 -12.3 9.9
10:30 1005 29.68 834 24.63 -6.8 19.7 66 -12.1 10.3
10:35 1005 29.68 834 24.63 -6.3 20.6 63 -12.3 9.9
10:40 1005 29.68 834 24.63 -5.9 21.4 61 -12.3 9.8
10:45 1005 29.68 834 24.63 -5.1 22.8 59 -11.8 10.7
10:50 1005 29.68 834 24.63 -4.7 23.6 57 -11.9 10.5
10:55 1005 29.68 834 24.63 -4.6 23.6 57 -11.9 10.6
11:00 1005 29.68 834 24.63 -4.9 23.2 57 -12.2 10.1
11:05 1005 29.68 834 24.63 -5.3 22.4 60 -11.9 10.5
11:10 1005 29.68 834 24.63 -5.5 22 60 -12.1 10.2
11:15 1005 29.68 834 24.63 -5.8 21.5 62 -12 10.4
11:20 1005 29.68 834 24.63 -6 21.2 62 -12.2 10.1
11:25 1005 29.68 834 24.63 -5.6 21.9 60 -12.3 9.9
11:30 1005 29.68 834 24.63 -5.3 22.5 60 -12 10.5
11:35 1005 29.68 834 24.63 -5.2 22.6 60 -11.8 10.8
11:40 1005 29.68 834 24.63 -5.6 21.9 62 -11.8 10.8
11:45 1005 29.68 834 24.63 -6.1 21 64 -11.8 10.7
11:50 1005 29.68 834 24.63 -6.2 20.9 64 -11.9 10.6
11:55 1005 29.68 834 24.63 -6.7 19.9 67 -11.8 10.8
12:00 1005 29.68 834 24.63 -6.8 19.7 66 -12.1 10.3
12:05 1005 29.68 834 24.63 -6.5 20.2 66 -11.9 10.5
12:10 1004 29.65 834 24.63 -5.7 21.8 62 -11.8 10.7
12:15 1004 29.65 833 24.6 -5.3 22.6 61 -11.6 11.2
12:20 1004 29.65 833 24.6 -5 23.1 61 -11.5 11.4
12:25 1004 29.65 833 24.6 -5.2 22.7 61 -11.5 11.3
12:30 1004 29.65 833 24.6 -5.2 22.6 61 -11.6 11.1
12:35 1004 29.65 833 24.6 -4.8 23.3 61 -11.2 11.8
12:40 1004 29.65 833 24.6 -4.4 24.1 59 -11.2 11.8
12:45 1004 29.65 833 24.6 -4.3 24.2 59 -11.3 11.7
12:50 1004 29.65 833 24.6 -4.2 24.4 59 -11 12.2
12:55 1004 29.65 833 24.6 -3.9 25 57 -11.2 11.8
13:00 1004 29.65 833 24.6 -3.8 25.1 58 -10.9 12.4
13:05 1004 29.65 833 24.6 -3.4 25.9 57 -10.8 12.5
13:10 1004 29.65 833 24.6 -3.2 26.3 57 -10.6 13
13:15 1004 29.65 833 24.6 -4.2 24.4 60 -10.9 12.4
13:20 1004 29.65 833 24.6 -4 24.8 57 -11.2 11.8
13:25 1004 29.65 833 24.6 -3.5 25.6 56 -11.1 11.9
13:30 1004 29.65 833 24.6 -3.3 26 56 -10.8 12.5
13:35 1004 29.65 833 24.6 -3.1 26.4 54 -11.1 12
13:40 1003 29.62 833 24.6 -3.9 25.1 58 -11 12.1
13:45 1003 29.62 833 24.6 -3.8 25.2 58 -10.8 12.5
13:50 1003 29.62 833 24.6 -2.7 27.2 53 -11 12.3
13:55 1003 29.62 833 24.6 -2.5 27.5 53 -10.7 12.7
14:00 1003 29.62 833 24.6 -3.3 26.1 57 -10.5 13
14:05 1003 29.62 833 24.6 -4 24.7 61 -10.6 13
14:10 1003 29.62 833 24.6 -4.1 24.7 59 -10.9 12.4
14:15 1003 29.62 832 24.57 -3.7 25.3 58 -10.8 12.5
14:20 1003 29.62 832 24.57 -2.9 26.7 55 -10.8 12.5
14:25 1003 29.62 832 24.57 -3.1 26.4 56 -10.6 12.9
14:30 1003 29.62 832 24.57 -2.6 27.4 53 -10.9 12.4
14:35 1003 29.62 832 24.57 -1.8 28.8 51 -10.7 12.7
14:40 1003 29.62 832 24.57 -1.4 29.4 49 -10.7 12.7
14:45 1003 29.62 832 24.57 -1.5 29.3 50 -10.7 12.7
14:50 1003 29.62 832 24.57 -1.4 29.6 50 -10.4 13.2
14:55 1003 29.62 832 24.57 -1.1 29.9 50 -10.2 13.6
15:00 1003 29.62 832 24.57 -1 30.1 51 -10.1 13.9
15:05 1003 29.62 832 24.57 -1.1 30.1 49 -10.5 13.2
15:10 1003 29.62 832 24.57 -0.8 30.5 49 -10.3 13.5
15:15 1003 29.62 833 24.6 -0.8 30.6 50 -10 13.9
15:20 1003 29.62 833 24.6 -1 30.3 52 -9.5 14.8
15:25 1004 29.65 833 24.6 -1.8 28.7 55 -9.8 14.3
15:30 1004 29.65 833 24.6 -2.2 28.1 56 -9.9 14.2
15:35 1004 29.65 833 24.6 -2.3 27.9 57 -9.7 14.5
15:40 1004 29.65 833 24.6 -2.3 27.8 57 -9.8 14.3
15:45 1004 29.65 833 24.6 -2.6 27.4 58 -9.8 14.3
15:50 1004 29.65 833 24.6 -3.4 25.8 61 -9.9 14.3
15:55 1004 29.65 833 24.6 -3 26.5 58 -10.1 13.8
16:00 1004 29.65 833 24.6 -3.1 26.5 60 -9.8 14.4
16:05 1004 29.65 833 24.6 -3.9 25 64 -9.7 14.5
16:10 1004 29.65 833 24.6 -4.3 24.3 64 -10.1 13.8
16:15 1004 29.65 833 24.6 -4.3 24.3 64 -10.1 13.7
16:20 1004 29.65 833 24.6 -4.1 24.7 63 -10.1 13.8
16:25 1004 29.65 833 24.6 -4.5 24 64 -10.2 13.6
16:30 1004 29.65 833 24.6 -4.9 23.1 66 -10.3 13.4
16:35 1004 29.65 833 24.6 -5.1 22.8 67 -10.3 13.4
16:40 1004 29.65 833 24.6 -5.3 22.5 68 -10.3 13.4
16:45 1004 29.65 833 24.6 -5.3 22.5 69 -10.2 13.7
16:50 1004 29.65 833 24.6 -4.9 23.2 66 -10.2 13.6
16:55 1004 29.65 833 24.6 -4.5 23.8 67 -9.7 14.5
17:00 1004 29.65 833 24.6 -5 22.9 68 -10 14
17:05 1004 29.65 833 24.6 -5.6 21.9 71 -10.1 13.9
17:10 1004 29.65 833 24.6 -5.9 21.4 72 -10.2 13.6
17:15 1004 29.65 833 24.6 -6 21.3 71 -10.4 13.3
17:20 1004 29.65 833 24.6 -6.5 20.4 73 -10.5 13.1
17:25 1004 29.65 833 24.6 -6.8 19.8 74 -10.7 12.8
17:30 1004 29.65 833 24.6 -6.6 20.1 73 -10.6 12.9
17:35 1004 29.65 833 24.6 -6.5 20.3 73 -10.5 13.1
17:40 1004 29.65 833 24.6 -6.3 20.6 73 -10.4 13.4
17:45 1004 29.65 833 24.6 -6.3 20.7 73 -10.3 13.5
17:50 1004 29.65 833 24.6 -6.1 21 72 -10.4 13.2
17:55 1004 29.65 833 24.6 -6.3 20.6 73 -10.4 13.2
18:00 1003 29.62 833 24.6 -6.4 20.4 74 -10.3 13.4
18:05 1003 29.62 833 24.6 -6.8 19.7 75 -10.5 13.1
18:10 1004 29.65 833 24.6 -7.1 19.3 77 -10.5 13.1
18:15 1004 29.65 833 24.6 -7.2 19.1 78 -10.5 13.2
18:20 1004 29.65 833 24.6 -7.2 19.1 77 -10.5 13.2
18:25 1004 29.65 833 24.6 -7.2 19 77 -10.6 12.9
18:30 1003 29.62 833 24.6 -7.1 19.2 76 -10.6 12.9
18:35 1003 29.62 833 24.6 -7 19.4 75 -10.7 12.7
18:40 1003 29.62 833 24.6 -7 19.4 75 -10.7 12.7
18:45 1004 29.65 833 24.6 -6.9 19.6 75 -10.6 12.9
18:50 1004 29.65 833 24.6 -6.6 20.2 73 -10.6 12.9
18:55 1004 29.65 833 24.6 -6.1 21.1 71 -10.6 12.9
19:00 1004 29.65 833 24.6 -6.3 20.7 72 -10.6 13
19:05 1004 29.65 833 24.6 -6.5 20.4 74 -10.4 13.3
19:10 1004 29.65 833 24.6 -6.6 20.1 74 -10.4 13.2
19:15 1003 29.62 833 24.6 -6.3 20.7 73 -10.4 13.2
19:20 1004 29.65 833 24.6 -6.5 20.2 75 -10.3 13.4
19:25 1004 29.65 833 24.6 -7.2 19.1 78 -10.3 13.4
19:30 1004 29.65 833 24.6 -7.2 19 77 -10.6 12.8
19:35 1004 29.65 833 24.6 -7 19.3 76 -10.6 13
19:40 1004 29.65 833 24.6 -6.6 20 74 -10.5 13
19:45 1004 29.65 833 24.6 -6.3 20.6 73 -10.4 13.3
19:50 1004 29.65 833 24.6 -6.4 20.5 73 -10.5 13.1
19:55 1004 29.65 833 24.6 -6.5 20.3 73 -10.5 13.1
20:00 1004 29.65 833 24.6 -6.6 20 73 -10.7 12.8
20:05 1004 29.65 833 24.6 -6.8 19.9 75 -10.4 13.3
20:10 1004 29.65 833 24.6 -6.8 19.8 75 -10.4 13.2
20:15 1004 29.65 833 24.6 -6.7 19.9 75 -10.4 13.2
20:20 1004 29.65 833 24.6 -6.9 19.7 75 -10.6 12.9
20:25 1004 29.65 833 24.6 -7.5 18.5 77 -10.8 12.6
20:30 1004 29.65 833 24.6 -7.8 17.9 78 -11 12.2
20:35 1004 29.65 833 24.6 -7.2 19 75 -10.9 12.3
20:40 1004 29.65 833 24.6 -6.6 20 73 -10.8 12.6
20:45 1004 29.65 833 24.6 -6.5 20.2 72 -10.7 12.7
20:50 1004 29.65 833 24.6 -6.5 20.2 73 -10.6 12.9
20:55 1004 29.65 833 24.6 -6.4 20.4 73 -10.6 12.9
21:00 1004 29.65 833 24.6 -6.3 20.7 71 -10.7 12.8
21:05 1004 29.65 833 24.6 -6.4 20.5 72 -10.7 12.8
21:10 1003 29.62 833 24.6 -6.3 20.7 69 -11 12.2
21:15 1004 29.65 833 24.6 -5.8 21.6 69 -10.6 12.8
21:20 1004 29.65 833 24.6 -6.2 20.8 74 -10.2 13.7
21:25 1004 29.65 833 24.6 -7 19.4 74 -10.8 12.5
21:30 1004 29.65 833 24.6 -7.1 19.3 75 -10.7 12.7
21:35 1004 29.65 833 24.6 -7.5 18.4 79 -10.6 12.8
21:40 1004 29.65 833 24.6 -8.4 16.9 82 -10.9 12.4
21:45 1004 29.65 833 24.6 -8.9 16 84 -11.1 12.1
21:50 1004 29.65 833 24.6 -8.8 16.2 85 -10.9 12.3
21:55 1004 29.65 833 24.6 -8.8 16.2 84 -11.1 12.1
22:00 1004 29.65 833 24.6 -8.9 16.1 86 -10.9 12.5
22:05 1004 29.65 833 24.6 -8.5 16.7 84 -10.8 12.6
22:10 1004 29.65 833 24.6 -8.6 16.5 83 -11 12.2
22:15 1004 29.65 833 24.6 -8.8 16.2 83 -11.1 11.9
22:20 1004 29.65 833 24.6 -8.7 16.4 80 -11.5 11.3
22:25 1004 29.65 833 24.6 -8.8 16.2 81 -11.4 11.4
22:30 1004 29.65 833 24.6 -8.9 16 79 -11.9 10.7
22:35 1004 29.65 833 24.6 -9.6 14.7 85 -11.7 10.9
22:40 1004 29.65 833 24.6 -10.2 13.6 88 -11.9 10.6
22:45 1004 29.65 833 24.6 -9.9 14.1 87 -11.7 11
22:50 1004 29.65 833 24.6 -9.9 14.1 86 -11.9 10.6
22:55 1004 29.65 833 24.6 -9.6 14.8 84 -11.7 10.9
23:00 1004 29.65 833 24.6 -9 15.7 82 -11.6 11.2
23:05 1004 29.65 833 24.6 -8.9 16 81 -11.5 11.3
23:10 1004 29.65 833 24.6 -8.5 16.6 80 -11.4 11.6
23:15 1004 29.65 833 24.6 -8.4 16.9 78 -11.6 11.1
23:20 1004 29.65 833 24.6 -8.3 17 78 -11.6 11.2
23:25 1004 29.65 833 24.6 -8.5 16.7 77 -11.8 10.8
23:30 1004 29.65 833 24.6 -8.8 16.2 79 -11.8 10.7
23:35 1004 29.65 833 24.6 -9.2 15.5 83 -11.5 11.2
23:40 1004 29.65 833 24.6 -9.1 15.7 83 -11.5 11.3
23:45 1004 29.65 833 24.6 -8.7 16.4 77 -11.9 10.5
23:50 1004 29.65 833 24.6 -8.6 16.6 80 -11.5 11.4
23:55 1004 29.65 833 24.6 -8.6 16.5 78 -11.8 10.8
24:00 1004 29.65 833 24.6 -8.9 15.9 82 -11.5 11.4